Time;durP1;ratioP1;P1;durP2;ratioP2;P2;SDS_P1;SDS_P2;PMS_P1;PMS_P2;Temp;Humidity;BMP_temperature;BMP_pressure;BME280_temperature;BME280_humidity;BME280_pressure;Samples;Min_cycle;Max_cycle;Signal;HPM_P1;HPM_P2
2020/12/03 00:01:51;;;;;;;;;;;;;;;19.96;34.47;101640.66;5099327;28;782;-60
2020/12/03 00:04:16;;;;;;;;;;;;;;;19.44;35.51;101647.16;5098663;28;1913;-60
2020/12/03 00:06:45;;;;;;;;;;;;;;;19.66;35.05;101653.28;5098186;28;786;-60
2020/12/03 00:09:12;;;;;;;;;;;;;;;20.60;33.32;101645.84;5099410;28;806;-61
2020/12/03 00:11:38;;;;;;;;;;;;;;;20.00;34.23;101636.22;5061491;28;974;-61
2020/12/03 00:14:04;;;;;;;;;;;;;;;19.95;34.50;101633.47;5079061;28;1028;-60
2020/12/03 00:16:30;;;;;;;;;;;;;;;19.45;35.58;101632.28;5078484;28;743;-60
2020/12/03 00:18:55;;;;;;;;;;;;;;;19.78;34.81;101642.00;5078977;28;961;-60
2020/12/03 00:21:38;;;;;;;;;;;;;;;20.56;33.30;101648.31;5078790;28;759;-60
2020/12/03 00:24:04;;;;;;;;;;;;;;;19.77;34.80;101645.84;5077681;28;1913;-59
2020/12/03 00:26:29;;;;;;;;;;;;;;;19.73;35.02;101636.47;5075225;28;1007;-59
2020/12/03 00:28:55;;;;;;;;;;;;;;;19.53;35.37;101636.41;5098960;28;791;-61
2020/12/03 00:31:20;;;;;;;;;;;;;;;20.41;33.82;101640.91;5098762;28;839;-61
2020/12/03 00:33:46;;;;;;;;;;;;;;;20.31;33.72;101643.66;5099077;28;798;-60
2020/12/03 00:36:11;;;;;;;;;;;;;;;19.96;34.47;101639.81;5098897;28;822;-61
2020/12/03 00:38:36;;;;;;;;;;;;;;;19.66;34.96;101644.19;5098587;28;807;-60
2020/12/03 00:41:02;;;;;;;;;;;;;;;20.33;33.82;101641.47;5098346;28;965;-60
2020/12/03 00:43:27;;;;;;;;;;;;;;;20.51;33.30;101640.06;5098984;28;811;-61
2020/12/03 00:45:53;;;;;;;;;;;;;;;20.13;34.11;101629.34;5097349;28;1918;-60
2020/12/03 00:48:18;;;;;;;;;;;;;;;19.93;34.53;101634.84;5097418;28;1133;-60
2020/12/03 00:50:44;;;;;;;;;;;;;;;19.42;35.38;101636.41;5097252;28;747;-60
2020/12/03 00:53:10;;;;;;;;;;;;;;;20.02;34.32;101630.44;5097657;28;1158;-60
2020/12/03 00:55:35;;;;;;;;;;;;;;;20.66;33.20;101631.75;5097003;28;1176;-60
2020/12/03 00:58:01;;;;;;;;;;;;;;;19.99;34.63;101631.81;5098299;28;799;-60
2020/12/03 01:00:27;;;;;;;;;;;;;;;19.83;34.64;101630.97;5097549;28;1244;-59
2020/12/03 01:02:53;;;;;;;;;;;;;;;19.88;34.67;101632.09;5098151;28;763;-61
2020/12/03 01:05:18;;;;;;;;;;;;;;;20.69;33.09;101630.34;5098134;28;1914;-61
2020/12/03 01:07:44;;;;;;;;;;;;;;;20.00;34.19;101625.19;5098288;28;744;-60
2020/12/03 01:10:18;;;;;;;;;;;;;;;19.99;34.52;101618.03;5075499;28;1269;-61
2020/12/03 01:12:44;;;;;;;;;;;;;;;19.62;35.12;101619.06;5098712;28;920;-60
2020/12/03 01:15:09;;;;;;;;;;;;;;;20.07;34.26;101616.63;5118804;28;783;-60
2020/12/03 01:17:34;;;;;;;;;;;;;;;20.53;33.49;101610.22;5116209;28;1228;-60
2020/12/03 01:20:00;;;;;;;;;;;;;;;19.98;34.46;101610.03;5117264;28;763;-60
2020/12/03 01:22:25;;;;;;;;;;;;;;;19.75;35.02;101608.59;5118444;28;819;-60
2020/12/03 01:24:51;;;;;;;;;;;;;;;19.70;35.03;101603.91;5115895;28;1917;-60
2020/12/03 01:27:16;;;;;;;;;;;;;;;20.48;33.73;101610.22;5097911;28;807;-60
2020/12/03 01:29:43;;;;;;;;;;;;;;;20.04;34.38;101606.16;5098310;28;759;-61
2020/12/03 01:32:08;;;;;;;;;;;;;;;19.80;34.68;101603.13;5097396;28;818;-61
2020/12/03 01:34:34;;;;;;;;;;;;;;;19.63;35.01;101598.66;5097844;28;850;-60
2020/12/03 01:36:59;;;;;;;;;;;;;;;19.98;34.51;101598.97;5096675;28;933;-60
2020/12/03 01:39:25;;;;;;;;;;;;;;;20.71;33.05;101597.75;5097509;28;755;-61
2020/12/03 01:41:50;;;;;;;;;;;;;;;21.13;32.33;101595.66;5095857;28;994;-60
2020/12/03 01:44:16;;;;;;;;;;;;;;;20.60;33.46;101598.88;5097399;28;1977;-61
2020/12/03 01:46:42;;;;;;;;;;;;;;;20.17;33.97;101588.19;5095781;28;846;-60
2020/12/03 01:49:11;;;;;;;;;;;;;;;19.85;35.02;101586.53;5097609;28;886;-60
2020/12/03 01:51:38;;;;;;;;;;;;;;;19.60;35.19;101588.16;5096261;28;819;-60
2020/12/03 01:54:07;;;;;;;;;;;;;;;20.46;33.83;101582.06;5095938;28;779;-60
2020/12/03 01:56:51;;;;;;;;;;;;;;;20.28;33.80;101581.53;5096018;28;1017;-60
2020/12/03 01:59:18;;;;;;;;;;;;;;;19.87;34.92;101580.78;5096650;28;783;-60
2020/12/03 02:01:43;;;;;;;;;;;;;;;19.64;35.19;101583.75;5078514;28;856;-60
2020/12/03 02:04:09;;;;;;;;;;;;;;;19.85;34.78;101571.91;5097286;28;1910;-60
2020/12/03 02:06:35;;;;;;;;;;;;;;;20.59;33.27;101577.88;5096852;28;759;-60
2020/12/03 02:09:01;;;;;;;;;;;;;;;20.11;34.17;101581.03;5095574;28;822;-60
2020/12/03 02:11:27;;;;;;;;;;;;;;;19.80;34.91;101581.03;5097015;28;965;-59
2020/12/03 02:13:59;;;;;;;;;;;;;;;19.42;35.41;101577.63;5115652;28;1244;-61
2020/12/03 02:16:25;;;;;;;;;;;;;;;20.21;34.20;101585.69;5116967;28;751;-60
2020/12/03 02:18:50;;;;;;;;;;;;;;;20.47;33.57;101590.06;5097848;28;1030;-59
2020/12/03 02:21:16;;;;;;;;;;;;;;;19.77;35.14;101587.09;5096769;28;748;-60
2020/12/03 02:23:42;;;;;;;;;;;;;;;19.58;35.46;101584.84;5096618;28;731;-58
2020/12/03 02:26:07;;;;;;;;;;;;;;;19.75;35.41;101584.56;5096486;28;1905;-61
2020/12/03 02:28:33;;;;;;;;;;;;;;;20.66;33.43;101581.16;5096586;28;866;-62
2020/12/03 02:31:02;;;;;;;;;;;;;;;20.11;34.65;101581.84;5095344;28;874;-55
2020/12/03 02:33:27;;;;;;;;;;;;;;;19.85;35.16;101589.28;5095634;28;700;-62
2020/12/03 02:35:53;;;;;;;;;;;;;;;19.54;35.64;101588.44;5096469;28;815;-60
2020/12/03 02:38:18;;;;;;;;;;;;;;;20.08;34.74;101578.81;5096406;28;842;-61
2020/12/03 02:40:43;;;;;;;;;;;;;;;20.62;33.41;101582.81;5096079;28;965;-60
2020/12/03 02:43:09;;;;;;;;;;;;;;;19.94;34.54;101586.84;5095205;28;794;-60
2020/12/03 02:45:34;;;;;;;;;;;;;;;19.87;34.79;101581.59;5096119;28;1890;-57
2020/12/03 02:48:00;;;;;;;;;;;;;;;19.89;34.77;101584.06;5096258;28;890;-59
2020/12/03 02:50:25;;;;;;;;;;;;;;;20.74;33.39;101586.13;5096645;28;839;-60
2020/12/03 02:52:51;;;;;;;;;;;;;;;20.19;34.34;101588.75;5096096;28;731;-60
2020/12/03 02:55:16;;;;;;;;;;;;;;;19.93;34.92;101590.69;5096074;28;1012;-60
2020/12/03 02:57:42;;;;;;;;;;;;;;;19.56;35.47;101583.44;5096403;28;735;-61
2020/12/03 03:00:07;;;;;;;;;;;;;;;20.18;34.32;101582.38;5096144;28;822;-61
2020/12/03 03:02:32;;;;;;;;;;;;;;;20.55;33.58;101590.59;5096080;28;763;-61
2020/12/03 03:04:58;;;;;;;;;;;;;;;20.07;34.41;101586.25;5096322;28;1913;-61
2020/12/03 03:07:23;;;;;;;;;;;;;;;19.67;35.33;101577.69;5095933;28;802;-60
2020/12/03 03:09:49;;;;;;;;;;;;;;;19.97;34.95;101580.75;5094903;28;1898;-60
2020/12/03 03:12:14;;;;;;;;;;;;;;;20.78;33.24;101578.94;5100885;28;844;-60
2020/12/03 03:14:40;;;;;;;;;;;;;;;20.08;34.62;101582.41;5115733;28;870;-60
2020/12/03 03:17:05;;;;;;;;;;;;;;;19.92;34.88;101589.88;5096205;28;1000;-59
2020/12/03 03:19:31;;;;;;;;;;;;;;;19.65;35.24;101587.34;5096287;28;767;-60
2020/12/03 03:21:56;;;;;;;;;;;;;;;20.32;34.10;101588.16;5095737;28;854;-60
2020/12/03 03:24:22;;;;;;;;;;;;;;;20.51;33.55;101580.09;5096056;28;1918;-60
2020/12/03 03:26:47;;;;;;;;;;;;;;;20.13;34.21;101571.34;5096052;28;997;-60
2020/12/03 03:29:13;;;;;;;;;;;;;;;19.86;34.88;101579.09;5095668;28;763;-60
2020/12/03 03:31:38;;;;;;;;;;;;;;;19.37;36.18;101566.63;5096162;28;767;-60
2020/12/03 03:34:04;;;;;;;;;;;;;;;20.27;34.26;101563.31;5098404;28;803;-61
2020/12/03 03:36:29;;;;;;;;;;;;;;;20.30;33.90;101561.91;5098153;28;900;-61
2020/12/03 03:38:55;;;;;;;;;;;;;;;19.93;35.01;101560.31;5100408;28;759;-60
2020/12/03 03:41:20;;;;;;;;;;;;;;;19.54;35.65;101556.16;5098632;28;974;-60
2020/12/03 03:43:46;;;;;;;;;;;;;;;19.77;35.12;101554.78;5099495;28;882;-60
2020/12/03 03:46:11;;;;;;;;;;;;;;;20.58;33.46;101546.66;5099821;28;1975;-59
2020/12/03 03:48:37;;;;;;;;;;;;;;;20.30;33.92;101528.78;5100124;28;815;-61
2020/12/03 03:51:02;;;;;;;;;;;;;;;19.95;34.93;101538.78;5099495;28;735;-61
2020/12/03 03:53:27;;;;;;;;;;;;;;;19.75;34.94;101550.63;5100004;28;890;-60
2020/12/03 03:55:53;;;;;;;;;;;;;;;20.13;34.45;101568.59;5099676;28;957;-60
2020/12/03 03:58:19;;;;;;;;;;;;;;;20.64;33.54;101577.84;5098378;28;847;-61
2020/12/03 04:00:45;;;;;;;;;;;;;;;19.92;34.88;101575.22;5099732;28;798;-60
2020/12/03 04:03:13;;;;;;;;;;;;;;;19.65;35.19;101563.31;5099504;28;823;-60
2020/12/03 04:05:41;;;;;;;;;;;;;;;19.57;35.43;101577.69;5099339;28;1909;-60
2020/12/03 04:08:06;;;;;;;;;;;;;;;20.51;33.76;101574.56;5099238;28;846;-60
2020/12/03 04:10:32;;;;;;;;;;;;;;;20.07;34.49;101586.25;5097909;28;958;-60
2020/12/03 04:12:57;;;;;;;;;;;;;;;20.00;34.51;101586.53;5110251;28;874;-60
2020/12/03 04:15:23;;;;;;;;;;;;;;;19.59;35.52;101592.03;5119833;28;819;-64
2020/12/03 04:17:49;;;;;;;;;;;;;;;20.55;33.58;101593.34;5119465;28;1038;-59
2020/12/03 04:20:14;;;;;;;;;;;;;;;20.39;33.73;101590.63;5119812;28;807;-59
2020/12/03 04:22:40;;;;;;;;;;;;;;;19.98;34.50;101601.75;5119191;28;786;-60
2020/12/03 04:25:05;;;;;;;;;;;;;;;19.53;35.35;101600.56;5115393;28;2385;-59
2020/12/03 04:27:31;;;;;;;;;;;;;;;20.07;34.55;101611.09;5099189;28;767;-59
2020/12/03 04:29:56;;;;;;;;;;;;;;;20.65;33.62;101604.34;5097415;28;1221;-59
2020/12/03 04:32:22;;;;;;;;;;;;;;;19.76;34.89;101591.75;5098920;28;831;-59
2020/12/03 04:34:47;;;;;;;;;;;;;;;19.89;34.70;101600.63;5099089;28;747;-59
2020/12/03 04:37:12;;;;;;;;;;;;;;;19.65;35.16;101595.63;5098759;28;771;-59
2020/12/03 04:39:38;;;;;;;;;;;;;;;20.47;33.74;101587.28;5098733;28;957;-49
2020/12/03 04:42:03;;;;;;;;;;;;;;;20.23;34.25;101595.38;5098898;28;751;-59
2020/12/03 04:44:33;;;;;;;;;;;;;;;19.96;34.64;101612.22;5079266;28;1917;-56
2020/12/03 04:47:22;;;;;;;;;;;;;;;19.58;35.49;101606.09;5097298;28;818;-60
2020/12/03 04:50:02;;;;;;;;;;;;;;;19.99;34.55;101604.22;5069863;28;1130;-60
2020/12/03 04:52:31;;;;;;;;;;;;;;;20.71;33.17;101605.22;5096702;28;823;-59
2020/12/03 04:55:15;;;;;;;;;;;;;;;19.91;34.63;101598.41;5098445;28;949;-59
2020/12/03 04:57:53;;;;;;;;;;;;;;;19.73;35.07;101594.25;5098123;28;798;-60
2020/12/03 05:00:42;;;;;;;;;;;;;;;19.57;35.53;101588.72;5097439;28;937;-59
2020/12/03 05:03:09;;;;;;;;;;;;;;;20.55;33.88;101587.81;5069719;28;1133;-60
2020/12/03 05:05:39;;;;;;;;;;;;;;;20.12;34.35;101586.25;5096610;28;1980;-59
2020/12/03 05:08:09;;;;;;;;;;;;;;;19.91;34.66;101593.72;5098516;28;768;-58
2020/12/03 05:10:34;;;;;;;;;;;;;;;19.49;35.55;101586.50;5097124;28;998;-59
2020/12/03 05:13:00;;;;;;;;;;;;;;;20.29;34.06;101577.66;5109211;28;1090;-59
2020/12/03 05:15:31;;;;;;;;;;;;;;;20.43;33.69;101568.81;5118723;28;778;-60
2020/12/03 05:17:59;;;;;;;;;;;;;;;20.07;34.31;101563.34;5117280;28;984;-60
2020/12/03 05:20:25;;;;;;;;;;;;;;;19.59;35.50;101555.34;5118259;28;811;-59
2020/12/03 05:22:58;;;;;;;;;;;;;;;19.87;34.78;101550.41;5118682;28;821;-60
2020/12/03 05:25:24;;;;;;;;;;;;;;;20.76;33.09;101548.00;5110578;28;1910;-59
2020/12/03 05:27:49;;;;;;;;;;;;;;;19.99;34.52;101548.16;5097556;28;795;-60
2020/12/03 05:30:15;;;;;;;;;;;;;;;20.02;34.38;101544.88;5079909;28;815;-60
2020/12/03 05:32:40;;;;;;;;;;;;;;;19.38;35.83;101546.22;5097939;28;783;-58
2020/12/03 05:35:05;;;;;;;;;;;;;;;19.49;35.66;101556.16;5097503;28;791;-59
2020/12/03 05:37:31;;;;;;;;;;;;;;;20.38;33.84;101557.75;5097903;28;870;-59
2020/12/03 05:39:57;;;;;;;;;;;;;;;20.02;34.72;101555.91;5097420;28;961;-60
2020/12/03 05:42:32;;;;;;;;;;;;;;;19.68;35.23;101570.22;5097555;28;704;-59
2020/12/03 05:44:58;;;;;;;;;;;;;;;19.61;35.47;101573.25;5097748;28;1976;-58
2020/12/03 05:47:30;;;;;;;;;;;;;;;20.49;33.95;101578.72;5097722;28;814;-59
2020/12/03 05:49:59;;;;;;;;;;;;;;;20.18;34.24;101579.63;5097310;28;830;-59
2020/12/03 05:52:26;;;;;;;;;;;;;;;19.77;34.83;101571.34;5097568;28;791;-59
2020/12/03 05:55:12;;;;;;;;;;;;;;;19.53;35.36;101581.25;5097552;28;882;-60
2020/12/03 05:57:38;;;;;;;;;;;;;;;19.82;34.93;101585.19;5096139;28;1194;-56
2020/12/03 06:00:13;;;;;;;;;;;;;;;20.61;33.36;101595.00;5096891;28;882;-59
2020/12/03 06:02:41;;;;;;;;;;;;;;;19.96;34.55;101595.66;5097156;28;802;-59
2020/12/03 06:05:17;;;;;;;;;;;;;;;19.73;35.02;101605.28;5078691;28;1982;-59
2020/12/03 06:08:09;;;;;;;;;;;;;;;19.81;34.93;101610.28;5096140;28;803;-58
2020/12/03 06:10:36;;;;;;;;;;;;;;;20.85;33.09;101607.09;5073290;28;1052;-59
2020/12/03 06:13:08;;;;;;;;;;;;;;;20.04;34.45;101605.31;5107353;28;1095;-59
2020/12/03 06:15:34;;;;;;;;;;;;;;;19.73;35.04;101602.53;5117253;28;790;-59
2020/12/03 06:18:02;;;;;;;;;;;;;;;19.47;35.54;101617.13;5117276;28;1149;-59
2020/12/03 06:20:46;;;;;;;;;;;;;;;20.02;34.45;101608.38;5116900;28;831;-60
2020/12/03 06:23:32;;;;;;;;;;;;;;;20.57;33.28;101604.97;5117295;28;755;-57
2020/12/03 06:26:09;;;;;;;;;;;;;;;20.03;34.47;101598.13;5091085;28;1917;-60
2020/12/03 06:28:54;;;;;;;;;;;;;;;19.55;35.55;101590.09;5094756;28;832;-58
2020/12/03 06:31:26;;;;;;;;;;;;;;;20.03;34.39;101596.19;5096848;28;743;-58
2020/12/03 06:33:57;;;;;;;;;;;;;;;20.62;33.17;101605.78;5095201;28;859;-58
2020/12/03 06:36:28;;;;;;;;;;;;;;;19.94;34.57;101598.69;5095508;28;799;-59
2020/12/03 06:39:02;;;;;;;;;;;;;;;19.78;34.84;101578.53;5095912;28;787;-57
2020/12/03 06:41:31;;;;;;;;;;;;;;;19.59;35.67;101574.66;5094717;28;1028;-57
2020/12/03 06:44:15;;;;;;;;;;;;;;;20.45;33.81;101586.72;5078338;28;840;-57
2020/12/03 06:46:59;;;;;;;;;;;;;;;20.13;34.21;101589.84;5096548;28;815;-58
2020/12/03 06:49:44;;;;;;;;;;;;;;;19.85;34.77;101600.34;5094791;28;763;-58
2020/12/03 06:52:27;;;;;;;;;;;;;;;19.61;35.26;101595.31;5096613;28;870;-59
2020/12/03 06:54:52;;;;;;;;;;;;;;;20.65;33.52;101568.44;5095061;28;969;-59
2020/12/03 06:57:37;;;;;;;;;;;;;;;20.18;34.09;101565.81;5095907;28;870;-60
2020/12/03 07:00:09;;;;;;;;;;;;;;;19.75;34.83;101573.53;5095151;28;874;-59
2020/12/03 07:03:01;;;;;;;;;;;;;;;19.44;35.80;101572.69;5096564;28;944;-57
2020/12/03 07:05:45;;;;;;;;;;;;;;;20.56;33.60;101564.63;5072141;28;1910;-58
2020/12/03 07:08:29;;;;;;;;;;;;;;;21.09;32.57;101567.72;5095881;28;794;-59
2020/12/03 07:10:58;;;;;;;;;;;;;;;20.50;33.73;101566.56;5095563;28;949;-59
2020/12/03 07:13:32;;;;;;;;;;;;;;;20.24;34.12;101568.56;5111050;28;1153;-59
2020/12/03 07:16:09;;;;;;;;;;;;;;;19.93;34.82;101574.13;5116488;28;774;-58
2020/12/03 07:18:35;;;;;;;;;;;;;;;19.42;35.57;101578.50;5116064;28;983;-58
2020/12/03 07:21:15;;;;;;;;;;;;;;;20.13;34.47;101585.16;5116437;28;845;-59
2020/12/03 07:23:41;;;;;;;;;;;;;;;20.67;33.54;101596.63;5116485;28;743;-57
2020/12/03 07:26:14;;;;;;;;;;;;;;;20.04;34.54;101606.16;5103582;28;1975;-58
2020/12/03 07:28:41;;;;;;;;;;;;;;;19.79;34.86;101602.28;5095123;28;864;-59
2020/12/03 07:31:12;;;;;;;;;;;;;;;19.40;35.62;101605.50;5094876;28;1329;-60
2020/12/03 07:34:04;;;;;;;;;;;;;;;20.25;34.03;101597.84;5095918;28;902;-60
2020/12/03 07:36:38;;;;;;;;;;;;;;;20.12;34.17;101594.53;5072165;28;1229;-50
2020/12/03 07:39:20;;;;;;;;;;;;;;;19.92;34.80;101597.31;5096218;28;823;-58
2020/12/03 07:41:47;;;;;;;;;;;;;;;19.55;35.61;101592.84;5095499;28;949;-59
2020/12/03 07:44:20;;;;;;;;;;;;;;;20.39;33.84;101609.97;5094713;28;806;-56
2020/12/03 07:46:46;;;;;;;;;;;;;;;20.41;33.61;101618.81;5094870;28;767;-57
2020/12/03 07:49:21;;;;;;;;;;;;;;;20.10;34.57;101612.50;5095806;28;850;-59
2020/12/03 07:51:54;;;;;;;;;;;;;;;19.76;35.03;101618.53;5094604;28;1318;-58
2020/12/03 07:54:20;;;;;;;;;;;;;;;19.48;35.61;101610.47;5094769;28;1448;-58
2020/12/03 07:56:47;;;;;;;;;;;;;;;20.49;33.98;101609.94;5093633;28;1090;-58
2020/12/03 07:59:21;;;;;;;;;;;;;;;20.25;33.93;101606.94;5095916;28;811;-59
2020/12/03 08:01:47;;;;;;;;;;;;;;;19.90;34.73;101597.59;5095940;28;819;-58
2020/12/03 08:04:12;;;;;;;;;;;;;;;19.53;35.65;101614.34;5094315;28;834;-58
2020/12/03 08:06:38;;;;;;;;;;;;;;;19.67;35.19;101609.97;5095626;28;1910;-57
2020/12/03 08:09:03;;;;;;;;;;;;;;;20.50;33.76;101614.34;5077761;28;824;-59
2020/12/03 08:11:47;;;;;;;;;;;;;;;20.07;34.94;101602.00;5095304;28;941;-59
2020/12/03 08:14:25;;;;;;;;;;;;;;;20.07;35.39;101602.81;5075654;28;886;-57
2020/12/03 08:16:50;;;;;;;;;;;;;;;19.54;36.37;101603.03;5074320;28;791;-58
2020/12/03 08:19:22;;;;;;;;;;;;;;;19.67;36.32;101612.75;5075593;28;1051;-58
2020/12/03 08:21:48;;;;;;;;;;;;;;;20.60;34.25;101615.44;5079087;28;871;-58
2020/12/03 08:24:18;;;;;;;;;;;;;;;19.99;35.19;101606.97;5079086;28;827;-58
2020/12/03 08:26:48;;;;;;;;;;;;;;;19.82;35.77;101610.03;5096373;28;1004;-59
2020/12/03 08:29:26;;;;;;;;;;;;;;;19.40;36.22;101611.00;5099245;28;728;-56
2020/12/03 08:31:52;;;;;;;;;;;;;;;20.14;34.65;101602.53;5097872;28;1325;-58
2020/12/03 08:34:18;;;;;;;;;;;;;;;20.33;34.37;101602.81;5098668;28;783;-59
2020/12/03 08:36:44;;;;;;;;;;;;;;;19.98;35.30;101594.28;5099050;28;795;-58
2020/12/03 08:39:09;;;;;;;;;;;;;;;19.65;35.79;101581.81;5097332;28;895;-58
2020/12/03 08:41:35;;;;;;;;;;;;;;;19.35;36.56;101580.69;5097174;28;990;-57
2020/12/03 08:44:04;;;;;;;;;;;;;;;20.41;34.37;101579.28;5097499;28;903;-59
2020/12/03 08:46:33;;;;;;;;;;;;;;;20.18;34.55;101559.47;5097387;28;1906;-57
2020/12/03 08:48:58;;;;;;;;;;;;;;;19.96;35.18;101554.25;5098898;28;814;-58
2020/12/03 08:51:24;;;;;;;;;;;;;;;19.67;35.72;101549.28;5098844;28;751;-59
2020/12/03 08:53:49;;;;;;;;;;;;;;;19.23;36.58;101536.00;5097478;28;1022;-58
2020/12/03 08:56:15;;;;;;;;;;;;;;;20.24;34.47;101533.47;5096744;28;973;-58
2020/12/03 08:58:42;;;;;;;;;;;;;;;20.22;34.39;101529.38;5097379;28;969;-57
2020/12/03 09:01:07;;;;;;;;;;;;;;;19.94;35.25;101543.47;5097335;28;1103;-58
2020/12/03 09:03:32;;;;;;;;;;;;;;;19.77;35.58;101553.97;5096719;28;800;-57
2020/12/03 09:05:58;;;;;;;;;;;;;;;19.00;37.03;101553.84;5096975;28;1906;-58
2020/12/03 09:08:23;;;;;;;;;;;;;;;19.98;35.17;101563.09;5098458;28;790;-58
2020/12/03 09:10:49;;;;;;;;;;;;;;;20.45;34.16;101570.16;5096339;28;1005;-59
2020/12/03 09:13:15;;;;;;;;;;;;;;;19.76;35.65;101557.81;5110225;28;1192;-57
2020/12/03 09:15:40;;;;;;;;;;;;;;;19.79;35.14;101563.63;5118650;28;838;-58
2020/12/03 09:18:06;;;;;;;;;;;;;;;19.26;36.28;101571.28;5118264;28;1074;-58
2020/12/03 09:20:32;;;;;;;;;;;;;;;19.92;35.35;101573.31;5118608;28;779;-58
2020/12/03 09:22:57;;;;;;;;;;;;;;;20.61;33.83;101575.66;5118961;28;787;-57
2020/12/03 09:25:22;;;;;;;;;;;;;;;19.97;35.02;101553.16;5110035;28;1988;-59
2020/12/03 09:27:48;;;;;;;;;;;;;;;19.94;35.13;101553.72;5097983;28;795;-60
2020/12/03 09:30:18;;;;;;;;;;;;;;;19.52;35.95;101539.06;5096883;28;784;-57
2020/12/03 09:32:48;;;;;;;;;;;;;;;19.99;34.86;101545.41;5097108;28;807;-59
2020/12/03 09:35:14;;;;;;;;;;;;;;;20.54;34.08;101544.72;5096609;28;787;-61
2020/12/03 09:37:39;;;;;;;;;;;;;;;19.84;35.43;101532.47;5096796;28;787;-60
2020/12/03 09:40:06;;;;;;;;;;;;;;;19.77;35.28;101529.94;5096030;28;966;-57
2020/12/03 09:42:36;;;;;;;;;;;;;;;19.25;36.39;101526.34;5098015;28;814;-57
2020/12/03 09:45:07;;;;;;;;;;;;;;;20.07;34.83;101520.00;5097711;28;1906;-61
2020/12/03 09:47:33;;;;;;;;;;;;;;;20.36;34.07;101516.63;5097174;28;807;-59
2020/12/03 09:49:58;;;;;;;;;;;;;;;19.97;34.79;101515.31;5079631;28;796;-60
2020/12/03 09:52:24;;;;;;;;;;;;;;;19.77;35.44;101526.38;5096475;28;747;-60
2020/12/03 09:54:50;;;;;;;;;;;;;;;19.24;36.49;101521.94;5096072;28;937;-63
2020/12/03 09:57:16;;;;;;;;;;;;;;;20.37;34.29;101518.28;5097581;28;557;-64
2020/12/03 09:59:41;;;;;;;;;;;;;;;20.32;34.12;101507.25;5096387;28;747;-64
2020/12/03 10:02:07;;;;;;;;;;;;;;;20.03;34.88;101512.56;5096963;28;803;-65
2020/12/03 10:04:39;;;;;;;;;;;;;;;19.76;35.54;101513.66;5097377;28;1905;-62
2020/12/03 10:07:09;;;;;;;;;;;;;;;19.11;37.00;101503.16;5097206;28;763;-61
2020/12/03 10:09:54;;;;;;;;;;;;;;;20.38;34.52;101508.03;5095949;28;804;-63
2020/12/03 10:12:22;;;;;;;;;;;;;;;20.17;34.87;101502.56;5088624;28;1091;-63
2020/12/03 10:15:03;;;;;;;;;;;;;;;19.95;35.25;101502.91;5116246;28;756;-60
2020/12/03 10:17:52;;;;;;;;;;;;;;;19.43;36.36;101499.31;5117380;28;1022;-60
2020/12/03 10:20:18;;;;;;;;;;;;;;;19.94;35.30;101493.81;5088462;28;1172;-60
2020/12/03 10:22:47;;;;;;;;;;;;;;;20.72;33.54;101488.88;5099298;28;798;-59
2020/12/03 10:25:19;;;;;;;;;;;;;;;20.12;34.78;101484.09;5110826;28;1976;-59
2020/12/03 10:27:58;;;;;;;;;;;;;;;19.88;35.10;101480.28;5095511;28;778;-59
2020/12/03 10:30:33;;;;;;;;;;;;;;;19.14;36.80;101475.88;5096940;28;767;-62
2020/12/03 10:33:00;;;;;;;;;;;;;;;20.35;34.37;101485.38;5096719;28;830;-62
2020/12/03 10:35:26;;;;;;;;;;;;;;;20.46;33.97;101480.66;5078568;28;816;-61
2020/12/03 10:37:58;;;;;;;;;;;;;;;19.87;35.35;101481.41;5097247;28;815;-62
2020/12/03 10:40:24;;;;;;;;;;;;;;;19.78;35.51;101487.47;5074823;28;978;-60
2020/12/03 10:43:02;;;;;;;;;;;;;;;19.23;36.30;101489.13;5074544;28;954;-61
2020/12/03 10:45:32;;;;;;;;;;;;;;;20.21;34.82;101487.09;5092180;28;1913;-61
2020/12/03 10:48:18;;;;;;;;;;;;;;;20.31;34.30;101475.19;5096451;28;926;-62
2020/12/03 10:50:47;;;;;;;;;;;;;;;19.87;35.23;101470.38;5096054;28;965;-62
2020/12/03 10:53:16;;;;;;;;;;;;;;;19.69;35.41;101468.97;5096320;28;844;-63
2020/12/03 10:55:41;;;;;;;;;;;;;;;19.18;36.82;101469.81;5096243;28;961;-62
2020/12/03 10:58:09;;;;;;;;;;;;;;;20.20;34.69;101466.13;5096715;28;810;-62
2020/12/03 11:00:34;;;;;;;;;;;;;;;20.22;34.65;101449.28;5096146;28;862;-63
2020/12/03 11:03:02;;;;;;;;;;;;;;;19.71;35.65;101445.50;5094689;28;871;-61
2020/12/03 11:05:27;;;;;;;;;;;;;;;19.71;35.56;101450.22;5096141;28;1976;-59
2020/12/03 11:07:54;;;;;;;;;;;;;;;19.73;35.80;101445.25;5078007;28;1078;-62
2020/12/03 11:10:19;;;;;;;;;;;;;;;20.70;34.03;101455.16;5094755;28;961;-60
2020/12/03 11:12:45;;;;;;;;;;;;;;;20.25;34.38;101437.66;5104270;28;1188;-60
2020/12/03 11:15:10;;;;;;;;;;;;;;;20.02;35.28;101439.13;5095004;28;803;-60
2020/12/03 11:17:36;;;;;;;;;;;;;;;19.45;36.25;101436.47;5094370;28;1004;-60
2020/12/03 11:20:03;;;;;;;;;;;;;;;19.69;35.94;101442.22;5096266;28;775;-60
2020/12/03 11:22:38;;;;;;;;;;;;;;;20.59;34.31;101443.28;5096230;28;767;-62
2020/12/03 11:25:04;;;;;;;;;;;;;;;20.06;35.15;101435.50;5095853;28;1906;-62
2020/12/03 11:27:30;;;;;;;;;;;;;;;19.90;35.27;101426.47;5096278;28;878;-64
2020/12/03 11:29:55;;;;;;;;;;;;;;;19.54;36.16;101420.16;5094629;28;811;-59
2020/12/03 11:32:24;;;;;;;;;;;;;;;19.43;36.42;101422.09;5078071;28;1312;-64
2020/12/03 11:34:50;;;;;;;;;;;;;;;20.44;34.31;101419.34;5094785;28;759;-63
2020/12/03 11:37:25;;;;;;;;;;;;;;;20.22;34.56;101418.91;5094142;28;850;-62
2020/12/03 11:39:52;;;;;;;;;;;;;;;19.95;35.14;101401.63;5094510;28;950;-65
2020/12/03 11:45:34;;;;;;;;;;;;;;;20.40;34.59;101384.28;5095287;28;1971;-61
2020/12/03 11:50:25;;;;;;;;;;;;;;;19.98;35.04;101397.47;5095998;28;767;-61
2020/12/03 11:52:50;;;;;;;;;;;;;;;19.76;35.67;101398.59;5095314;28;798;-64
2020/12/03 11:55:19;;;;;;;;;;;;;;;19.25;37.02;101388.50;5098011;28;941;-63
2020/12/03 11:57:45;;;;;;;;;;;;;;;20.04;35.35;101388.03;5099837;28;802;-62
2020/12/03 12:00:21;;;;;;;;;;;;;;;20.65;33.97;101380.53;5099258;28;831;-63
2020/12/03 12:02:50;;;;;;;;;;;;;;;19.92;35.39;101379.25;5098534;28;775;-63
2020/12/03 12:06:06;;;;;;;;;;;;;;;19.88;35.66;101384.53;5099657;28;1976;-63
2020/12/03 12:10:44;;;;;;;;;;;;;;;20.35;34.63;101387.91;5099408;28;1004;-61
2020/12/03 12:13:12;;;;;;;;;;;;;;;20.17;35.13;101379.16;5110797;28;1079;-65
2020/12/03 12:15:38;;;;;;;;;;;;;;;20.03;35.15;101380.88;5119812;28;818;-65
2020/12/03 12:18:04;;;;;;;;;;;;;;;19.76;35.58;101382.03;5119873;28;1149;-64
2020/12/03 12:20:29;;;;;;;;;;;;;;;19.86;35.90;101372.13;5117975;28;890;-60
2020/12/03 12:22:55;;;;;;;;;;;;;;;20.73;33.99;101366.13;5119678;28;786;-62
2020/12/03 12:25:20;;;;;;;;;;;;;;;20.11;34.98;101383.03;5113239;28;1909;-60
2020/12/03 12:27:46;;;;;;;;;;;;;;;19.92;35.44;101373.72;5099178;28;795;-62
2020/12/03 12:30:12;;;;;;;;;;;;;;;19.61;36.01;101371.03;5098866;28;811;-64
2020/12/03 12:32:37;;;;;;;;;;;;;;;19.69;36.05;101372.41;5099300;28;842;-63
2020/12/03 12:35:03;;;;;;;;;;;;;;;20.71;34.32;101368.38;5098853;28;838;-64
2020/12/03 12:37:28;;;;;;;;;;;;;;;20.25;34.97;101361.16;5097180;28;888;-61
2020/12/03 12:39:54;;;;;;;;;;;;;;;20.05;35.22;101370.38;5098613;28;1008;-61
2020/12/03 12:42:22;;;;;;;;;;;;;;;19.65;35.99;101369.38;5097338;28;878;-62
2020/12/03 12:44:48;;;;;;;;;;;;;;;19.82;35.88;101369.94;5097030;28;1979;-63
2020/12/03 12:47:13;;;;;;;;;;;;;;;20.70;34.23;101371.44;5098728;28;814;-61
2020/12/03 12:49:39;;;;;;;;;;;;;;;20.07;35.16;101370.09;5097510;28;843;-61
2020/12/03 12:52:04;;;;;;;;;;;;;;;19.94;35.44;101369.59;5098504;28;853;-60
2020/12/03 12:54:30;;;;;;;;;;;;;;;19.57;36.27;101380.97;5098788;28;925;-61
2020/12/03 12:56:56;;;;;;;;;;;;;;;19.49;36.46;101374.94;5098204;28;973;-65
2020/12/03 12:59:21;;;;;;;;;;;;;;;20.43;34.69;101370.72;5098386;28;770;-62
2020/12/03 13:01:47;;;;;;;;;;;;;;;21.08;33.57;101363.38;5098358;28;870;-60
2020/12/03 13:04:13;;;;;;;;;;;;;;;20.84;33.67;101361.38;5098602;28;810;-61
2020/12/03 13:06:39;;;;;;;;;;;;;;;20.30;35.02;101357.53;5096962;28;1917;-64
2020/12/03 13:09:05;;;;;;;;;;;;;;;20.02;35.27;101357.16;5096995;28;803;-64
2020/12/03 13:11:30;;;;;;;;;;;;;;;19.43;36.40;101356.75;5098170;28;976;-64